createdAt,value
2023-02-26T00:02:49.844Z,100096.41
2023-02-26T00:07:51.168Z,100100.03
2023-02-26T00:12:52.636Z,100107.16
2023-02-26T00:18:10.457Z,100108.69
2023-02-26T00:23:14.469Z,100115.19
2023-02-26T00:28:16.023Z,100107.00
2023-02-26T00:33:17.651Z,100106.38
2023-02-26T00:38:19.292Z,100115.16
2023-02-26T00:43:26.083Z,100121.06
2023-02-26T00:48:55.609Z,100118.03
2023-02-26T00:54:09.561Z,100120.69
2023-02-26T00:59:10.981Z,100116.50
2023-02-26T01:04:13.697Z,100115.84
2023-02-26T01:09:26.941Z,100116.19
2023-02-26T01:14:29.599Z,100123.56
2023-02-26T01:19:46.846Z,100124.69
2023-02-26T01:25:06.836Z,100139.25
2023-02-26T01:30:09.679Z,100133.81
2023-02-26T01:35:35.679Z,100143.78
2023-02-26T01:41:07.566Z,100136.47
2023-02-26T01:46:18.658Z,100147.06
2023-02-26T01:51:48.018Z,100157.81
2023-02-26T01:56:56.898Z,100152.31
2023-02-26T02:02:02.120Z,100169.66
2023-02-26T02:07:05.217Z,100168.88
2023-02-26T02:12:15.521Z,100181.63
2023-02-26T02:17:34.396Z,100183.88
2023-02-26T02:22:45.961Z,100181.00
2023-02-26T02:28:06.295Z,100181.59
2023-02-26T02:33:14.958Z,100189.66
2023-02-26T02:38:24.942Z,100196.94
2023-02-26T02:43:32.393Z,100194.81
2023-02-26T02:48:42.285Z,100199.69
2023-02-26T02:53:49.772Z,100202.91
2023-02-26T02:59:03.794Z,100204.66
2023-02-26T03:04:11.522Z,100205.75
2023-02-26T03:09:13.018Z,100214.22
2023-02-26T03:14:15.642Z,100210.41
2023-02-26T03:19:49.270Z,100223.13
2023-02-26T03:25:09.322Z,100226.41
2023-02-26T03:30:16.148Z,100226.72
2023-02-26T03:35:25.039Z,100234.31
2023-02-26T03:40:35.583Z,100241.69
2023-02-26T03:45:39.591Z,100253.84
2023-02-26T03:50:51.107Z,100250.13
2023-02-26T03:56:24.929Z,100260.34
2023-02-26T04:01:48.987Z,100269.03
2023-02-26T04:06:53.466Z,100275.03
2023-02-26T04:11:57.083Z,100281.81
2023-02-26T04:16:58.574Z,100294.06
2023-02-26T04:21:59.983Z,100294.06
2023-02-26T04:27:01.404Z,100301.81
2023-02-26T04:32:02.986Z,100305.16
2023-02-26T04:37:04.696Z,100303.63
2023-02-26T04:42:06.072Z,100315.53
2023-02-26T04:47:07.520Z,100317.22
2023-02-26T04:52:08.946Z,100319.03
2023-02-26T04:57:10.420Z,100316.63
2023-02-26T05:02:11.803Z,100322.25
2023-02-26T05:07:13.144Z,100328.41
2023-02-26T05:12:14.566Z,100336.22
2023-02-26T05:17:15.910Z,100338.66
2023-02-26T05:22:17.481Z,100349.00
2023-02-26T05:27:18.846Z,100353.34
2023-02-26T05:32:20.296Z,100355.75
2023-02-26T05:37:21.723Z,100369.47
2023-02-26T05:42:23.126Z,100376.94
2023-02-26T05:47:25.274Z,100377.44
2023-02-26T05:52:26.703Z,100378.06
2023-02-26T05:57:28.102Z,100392.38
2023-02-26T06:02:29.488Z,100396.25
2023-02-26T06:07:30.928Z,100410.75
2023-02-26T06:12:32.270Z,100424.00
2023-02-26T06:17:34.393Z,100425.91
2023-02-26T06:22:35.825Z,100441.81
2023-02-26T06:27:37.219Z,100439.75
2023-02-26T06:32:38.686Z,100441.56
2023-02-26T06:37:40.088Z,100454.34
2023-02-26T06:42:41.447Z,100466.88
2023-02-26T06:47:42.846Z,100478.91
2023-02-26T06:52:44.241Z,100491.66
2023-02-26T06:57:45.664Z,100495.41
2023-02-26T07:02:47.229Z,100501.44
2023-02-26T07:07:48.571Z,100507.09
2023-02-26T07:12:50.004Z,100506.78
2023-02-26T07:17:51.355Z,100521.59
2023-02-26T07:22:52.781Z,100514.63
2023-02-26T07:27:54.823Z,100527.28
2023-02-26T07:32:56.395Z,100530.81
2023-02-26T07:37:57.989Z,100544.19
2023-02-26T07:42:59.400Z,100554.72
2023-02-26T07:48:00.850Z,100564.47
2023-02-26T07:53:02.262Z,100572.81
2023-02-26T07:58:03.641Z,100582.59
2023-02-26T08:03:05.018Z,100582.81
2023-02-26T08:08:06.430Z,100599.38
2023-02-26T08:13:07.956Z,100607.34
2023-02-26T08:18:10.140Z,100619.41
2023-02-26T08:23:11.559Z,100613.25
2023-02-26T08:28:13.262Z,100631.84
2023-02-26T08:33:14.619Z,100629.06
2023-02-26T08:38:16.080Z,100637.97
2023-02-26T08:43:17.910Z,100643.06
2023-02-26T08:48:19.907Z,100648.13
2023-02-26T08:53:21.437Z,100660.44
2023-02-26T08:58:22.869Z,100654.50
2023-02-26T09:03:24.373Z,100659.81
2023-02-26T09:08:25.938Z,100661.25
2023-02-26T09:13:27.437Z,100661.25
2023-02-26T09:18:28.840Z,100682.28
2023-02-26T09:23:30.283Z,100685.25
2023-02-26T09:28:31.718Z,100691.63
2023-02-26T09:33:33.537Z,100702.34
2023-02-26T09:38:37.848Z,100688.44
2023-02-26T09:43:59.868Z,100691.59
2023-02-26T09:49:19.477Z,100694.50
2023-02-26T09:54:29.792Z,100697.44
2023-02-26T09:59:34.172Z,100701.09
2023-02-26T10:04:59.745Z,100715.91
2023-02-26T10:10:31.249Z,100693.50
2023-02-26T10:15:42.193Z,100710.28
2023-02-26T10:21:01.807Z,100719.97
2023-02-26T10:26:12.288Z,100725.84
2023-02-26T10:31:34.928Z,100731.00
2023-02-26T10:37:20.790Z,100728.28
2023-02-26T10:42:33.685Z,100735.16
2023-02-26T10:47:56.657Z,100739.97
2023-02-26T10:52:58.446Z,100736.66
2023-02-26T10:58:15.881Z,100752.44
2023-02-26T11:03:27.140Z,100763.63
2023-02-26T11:08:33.800Z,100761.41
2023-02-26T11:13:38.108Z,100763.84
2023-02-26T11:18:43.901Z,100756.03
2023-02-26T11:23:46.279Z,100766.59
2023-02-26T11:28:50.021Z,100763.06
2023-02-26T11:33:57.132Z,100764.00
2023-02-26T11:39:21.641Z,100758.56
2023-02-26T11:44:45.460Z,100761.53
2023-02-26T11:49:52.994Z,100747.09
2023-02-26T11:55:01.315Z,100758.59
2023-02-26T12:00:24.772Z,100755.13
2023-02-26T12:05:26.438Z,100746.56
2023-02-26T12:11:08.970Z,100749.25
2023-02-26T12:16:25.376Z,100742.94
2023-02-26T12:21:48.882Z,100754.34
2023-02-26T12:27:17.594Z,100751.38
2023-02-26T12:32:46.004Z,100753.63
2023-02-26T12:38:18.415Z,100757.97
2023-02-26T12:43:50.530Z,100758.13
2023-02-26T12:48:54.887Z,100753.72
2023-02-26T12:54:00.050Z,100768.44
2023-02-26T12:59:20.212Z,100756.75
2023-02-26T13:04:49.465Z,100766.88
2023-02-26T13:10:07.414Z,100760.81
2023-02-26T13:15:18.776Z,100773.78
2023-02-26T13:20:24.723Z,100764.91
2023-02-26T13:25:51.710Z,100775.53
2023-02-26T13:30:56.376Z,100777.94
2023-02-26T13:36:00.462Z,100772.16
2023-02-26T13:41:22.266Z,100777.94
2023-02-26T13:46:48.024Z,100781.03
2023-02-26T13:51:53.580Z,100785.25
2023-02-26T13:57:25.892Z,100774.00
2023-02-26T14:02:36.911Z,100786.06
2023-02-26T14:08:09.880Z,100785.19
2023-02-26T14:13:18.698Z,100783.94
2023-02-26T14:18:40.261Z,100785.59
2023-02-26T14:23:41.871Z,100789.28
2023-02-26T14:28:55.827Z,100782.09
2023-02-26T14:34:21.587Z,100794.84
2023-02-26T14:39:25.028Z,100795.47
2023-02-26T14:44:31.012Z,100797.78
2023-02-26T14:49:36.762Z,100805.72
2023-02-26T14:54:57.405Z,100810.88
2023-02-26T15:00:12.607Z,100823.75
2023-02-26T15:05:13.950Z,100819.44
2023-02-26T15:10:28.614Z,100821.50
2023-02-26T15:16:04.688Z,100824.00
2023-02-26T15:21:24.534Z,100833.63
2023-02-26T15:26:30.784Z,100848.53
2023-02-26T15:31:57.987Z,100858.66
2023-02-26T15:37:00.522Z,100854.69
2023-02-26T15:42:04.886Z,100856.50
2023-02-26T15:47:06.673Z,100868.53
2023-02-26T15:52:15.485Z,100862.97
2023-02-26T15:57:19.887Z,100854.50
2023-02-26T16:02:26.856Z,100863.63
2023-02-26T16:07:28.238Z,100863.06
2023-02-26T16:12:40.416Z,100876.44
2023-02-26T16:17:48.826Z,100883.56
2023-02-26T16:22:56.047Z,100894.81
2023-02-26T16:28:00.960Z,100897.59
2023-02-26T16:33:04.476Z,100898.47
2023-02-26T16:38:17.111Z,100901.91
2023-02-26T16:43:43.209Z,100920.69
2023-02-26T16:48:48.952Z,100924.88
2023-02-26T16:53:58.093Z,100926.13
2023-02-26T16:59:12.664Z,100929.34
2023-02-26T17:04:17.413Z,100934.22
2023-02-26T17:09:38.535Z,100941.97
2023-02-26T17:14:42.629Z,100944.19
2023-02-26T17:19:44.043Z,100955.94
2023-02-26T17:24:47.622Z,100954.72
2023-02-26T17:29:51.289Z,100968.75
2023-02-26T17:34:53.892Z,100960.78
2023-02-26T17:39:57.655Z,100979.91
2023-02-26T17:44:59.923Z,100986.56
2023-02-26T17:50:01.403Z,100998.69
2023-02-26T17:55:02.870Z,101018.66
2023-02-26T18:00:05.458Z,101022.88
2023-02-26T18:05:07.306Z,101025.41
2023-02-26T18:10:17.207Z,101027.84
2023-02-26T18:15:18.659Z,101035.94
2023-02-26T18:20:22.439Z,101021.06
2023-02-26T18:25:25.052Z,101032.66
2023-02-26T18:30:34.089Z,101044.50
2023-02-26T18:35:35.668Z,101043.91
2023-02-26T18:40:37.069Z,101047.75
2023-02-26T18:45:40.301Z,101042.53
2023-02-26T18:50:43.041Z,101047.75
2023-02-26T18:55:45.238Z,101049.69
2023-02-26T19:00:47.205Z,101055.69
2023-02-26T19:05:59.345Z,101054.25
2023-02-26T19:11:00.923Z,101064.50
2023-02-26T19:16:02.401Z,101064.97
2023-02-26T19:21:05.758Z,101078.38
2023-02-26T19:26:08.558Z,101085.75
2023-02-26T19:31:10.360Z,101082.25
2023-02-26T19:36:11.890Z,101091.31
2023-02-26T19:41:14.199Z,101085.69
2023-02-26T19:46:15.943Z,101100.06
2023-02-26T19:51:18.552Z,101104.25
2023-02-26T19:56:19.908Z,101109.72
2023-02-26T20:01:21.314Z,101114.88
2023-02-26T20:06:22.769Z,101133.28
2023-02-26T20:11:24.702Z,101142.09
2023-02-26T20:16:26.459Z,101142.84
2023-02-26T20:21:28.522Z,101145.94
2023-02-26T20:26:30.236Z,101154.03
2023-02-26T20:31:31.843Z,101167.63
2023-02-26T20:36:33.618Z,101169.56
2023-02-26T20:41:35.008Z,101168.81
2023-02-26T20:46:38.722Z,101174.53
2023-02-26T20:51:41.600Z,101175.81
2023-02-26T20:56:43.984Z,101177.81
2023-02-26T21:01:47.045Z,101188.44
2023-02-26T21:06:48.386Z,101196.47
2023-02-26T21:11:50.530Z,101196.06
2023-02-26T21:16:53.768Z,101192.84
2023-02-26T21:21:55.145Z,101189.63
2023-02-26T21:26:56.647Z,101192.28
2023-02-26T21:32:03.086Z,101193.16
2023-02-26T21:37:10.281Z,101191.53
2023-02-26T21:42:12.699Z,101180.75
2023-02-26T21:47:14.023Z,101192.53
2023-02-26T21:52:15.608Z,101193.41
2023-02-26T21:57:16.910Z,101189.78
2023-02-26T22:02:18.301Z,101200.41
2023-02-26T22:07:19.831Z,101196.25
2023-02-26T22:12:21.372Z,101193.69
2023-02-26T22:17:23.654Z,101190.19
2023-02-26T22:22:26.853Z,101195.72
2023-02-26T22:27:28.168Z,101194.41
2023-02-26T22:32:29.738Z,101197.25
2023-02-26T22:37:31.438Z,101190.03
2023-02-26T22:42:32.781Z,101194.72
2023-02-26T22:47:35.101Z,101193.75
2023-02-26T22:52:36.462Z,101199.06
2023-02-26T22:57:37.886Z,101193.56
2023-02-26T23:02:39.259Z,101198.00
2023-02-26T23:07:41.301Z,101198.22
2023-02-26T23:12:43.741Z,101190.38
2023-02-26T23:17:45.086Z,101199.56
2023-02-26T23:22:46.505Z,101205.63
2023-02-26T23:27:47.876Z,101196.06
2023-02-26T23:32:49.889Z,101206.78
2023-02-26T23:37:51.298Z,101205.09
2023-02-26T23:42:52.940Z,101201.69
2023-02-26T23:47:54.422Z,101203.47
2023-02-26T23:52:55.749Z,101206.69
2023-02-26T23:57:57.642Z,101215.38
